Site contains unofficial IBTrACS data. Visit the IBTrACS Website to access archived data.

1923 NOT_NAMED (1923055S11151)


IBTrACS version v04r00. Visit IBTrACS website for data access.
Please direct all questions to the IBTrACS Q and A forum

Storm track - Intensity - Wind Radii - Intensity Data - Source Data - All data

Summary Information

Storm ID 1923055S11151
Start Feb 23 23Z
End Feb 28 23Z
ATCF IDs
Track status Best track data.

Storm track plot

Map of storm track

Intensity plots

No Intensity information for this storm


Radial wind information

No radial wind information for this storm


Position and Intensity Table

BASIN ISO_TIME_________ NATURE LAT LON
degrees north degrees east
SP 1923-02-23 23:00:00 NR -11.00 150.90
SP 1923-02-24 00:00:00 NR -11.02 150.75
SP 03:00:00 NR -11.09 150.32
SP 06:00:00 NR -11.18 149.89
SP 09:00:00 NR -11.30 149.47
SP 11:00:00 NR -11.40 149.20
SP 12:00:00 NR -11.46 149.07
SP 15:00:00 NR -11.67 148.69
SP 18:00:00 NR -11.91 148.35
SP 21:00:00 NR -12.15 148.06
SP 23:00:00 NR -12.30 147.90
SP 1923-02-25 00:00:00 NR -12.36 147.83
SP 03:00:00 NR -12.53 147.65
SP 06:00:00 NR -12.69 147.53
SP 09:00:00 NR -12.87 147.45
SP 11:00:00 NR -13.00 147.40
SP 12:00:00 NR -13.08 147.35
SP 15:00:00 NR -13.32 147.19
SP 18:00:00 NR -13.60 147.08
SP 21:00:00 NR -13.89 147.09
SP 23:00:00 NR -14.10 147.20
SP 1923-02-26 00:00:00 NR -14.21 147.29
SP 03:00:00 NR -14.56 147.68
SP 06:00:00 NR -14.90 148.22
SP 09:00:00 NR -15.22 148.85
SP 11:00:00 NR -15.40 149.30
SP 12:00:00 NR -15.46 149.49
SP 15:00:00 NR -15.59 150.10
SP 18:00:00 NR -15.71 150.76
SP 21:00:00 NR -15.85 151.48
SP 23:00:00 NR -16.00 152.00
SP 1923-02-27 00:00:00 NR -16.08 152.29
SP 03:00:00 NR -16.37 153.23
SP 06:00:00 NR -16.75 154.20
SP 09:00:00 NR -17.27 155.13
SP 11:00:00 NR -17.70 155.70
SP 12:00:00 NR -17.95 155.96
SP 15:00:00 NR -18.80 156.67
SP 18:00:00 NR -19.78 157.29
SP 21:00:00 NR -20.81 157.81
SP 23:00:00 NR -21.50 158.10
SP 1923-02-28 00:00:00 NR -21.83 158.22
SP 03:00:00 NR -22.82 158.52
SP 06:00:00 NR -23.80 158.75
SP 09:00:00 NR -24.73 158.99
SP 11:00:00 NR -25.30 159.20
SP 12:00:00 NR -25.57 159.33
SP 15:00:00 NR -26.31 159.79
SP 18:00:00 NR -26.98 160.34
SP 21:00:00 NR -27.60 160.97
SP 23:00:00 NR -28.00 161.40

Source Information

Agency Information
USA
TOKYO
CMA
HKO
NEWDELHI
REUNION
BOM
NADI
WELLINGTON
DS824
TD9636 cons_worldwide_trop_cyclone_18710101-19891231-006:Line=1431
TD9635
NEUMANN
MLC

All available IBTrACS Data

SEASON BASIN SUBBASIN ISO_TIME_________ NATURE LAT LON DIST2LAND LANDFALL IFLAG USA SSHS TD9636 LAT TD9636 LON TD9636 STAGE STORM SPEED STORM DIR
Year degrees north degrees east km km 1 degrees north degrees east kts degrees
1923 SP EA 1923-02-23 23:00:00 NR -11.00 150.90 49 46 __________O___ -1 -11.00 150.90 7 9 261
1923 SP EA 1923-02-24 00:00:00 NR -11.02 150.75 46 40 __________P___ -1 -11.02 150.75 7 9 261
1923 SP EA 03:00:00 NR -11.09 150.32 44 44 __________P___ -1 -11.09 150.32 7 9 260
1923 SP EA 06:00:00 NR -11.18 149.89 64 64 __________P___ -1 -11.18 149.89 7 9 256
1923 SP EA 09:00:00 NR -11.30 149.47 89 89 __________P___ -1 -11.30 149.47 7 9 252
1923 SP EA 11:00:00 NR -11.40 149.20 116 116 __________O___ -1 -11.40 149.20 7 9 247
1923 SP EA 12:00:00 NR -11.46 149.07 130 130 __________P___ -1 -11.46 149.07 7 9 241
1923 SP EA 15:00:00 NR -11.67 148.69 160 160 __________P___ -1 -11.67 148.69 7 8 238
1923 SP EA 18:00:00 NR -11.91 148.35 190 190 __________P___ -1 -11.91 148.35 7 8 232
1923 SP EA 21:00:00 NR -12.15 148.06 213 213 __________P___ -1 -12.15 148.06 7 7 228
1923 SP EA 23:00:00 NR -12.30 147.90 235 235 __________O___ -1 -12.30 147.90 7 6 227
1923 SP EA 1923-02-25 00:00:00 NR -12.36 147.83 247 247 __________P___ -1 -12.36 147.83 7 5 227
1923 SP EA 03:00:00 NR -12.53 147.65 259 259 __________P___ -1 -12.53 147.65 7 4 221
1923 SP EA 06:00:00 NR -12.69 147.53 285 285 __________P___ -1 -12.69 147.53 7 4 211
1923 SP EA 09:00:00 NR -12.87 147.45 309 309 __________P___ -1 -12.87 147.45 7 4 202
1923 SP EA 11:00:00 NR -13.00 147.40 318 310 __________O___ -1 -13.00 147.40 7 5 204
1923 SP EA 12:00:00 NR -13.08 147.35 303 279 __________P___ -1 -13.08 147.35 7 6 213
1923 SP EA 15:00:00 NR -13.32 147.19 279 249 __________P___ -1 -13.32 147.19 7 6 206
1923 SP EA 18:00:00 NR -13.60 147.08 249 229 __________P___ -1 -13.60 147.08 7 6 189
1923 SP EA 21:00:00 NR -13.89 147.09 229 223 __________P___ -1 -13.89 147.09 7 6 167
1923 SP EA 23:00:00 NR -14.10 147.20 228 223 __________O___ -1 -14.10 147.20 7 7 149
1923 SP EA 1923-02-26 00:00:00 NR -14.21 147.29 233 229 __________P___ -1 -14.21 147.29 7 10 134
1923 SP EA 03:00:00 NR -14.56 147.68 259 259 __________P___ -1 -14.56 147.68 7 11 127
1923 SP EA 06:00:00 NR -14.90 148.22 304 304 __________P___ -1 -14.90 148.22 7 13 120
1923 SP EA 09:00:00 NR -15.22 148.85 375 372 __________P___ -1 -15.22 148.85 7 14 116
1923 SP EA 11:00:00 NR -15.40 149.30 404 404 __________O___ -1 -15.40 149.30 7 13 111
1923 SP EA 12:00:00 NR -15.46 149.49 419 419 __________P___ -1 -15.46 149.49 7 12 104
1923 SP EA 15:00:00 NR -15.59 150.10 471 471 __________P___ -1 -15.59 150.10 7 12 101
1923 SP EA 18:00:00 NR -15.71 150.76 535 535 __________P___ -1 -15.71 150.76 7 14 101
1923 SP EA 21:00:00 NR -15.85 151.48 569 569 __________P___ -1 -15.85 151.48 7 15 104
1923 SP EA 23:00:00 NR -16.00 152.00 588 588 __________O___ -1 -16.00 152.00 7 16 106
1923 SP EA 1923-02-27 00:00:00 NR -16.08 152.29 597 597 __________P___ -1 -16.08 152.29 7 19 107
1923 SP EA 03:00:00 NR -16.37 153.23 637 637 __________P___ -1 -16.37 153.23 7 20 110
1923 SP EA 06:00:00 NR -16.75 154.20 690 690 __________P___ -1 -16.75 154.20 7 20 116
1923 SP EA 09:00:00 NR -17.27 155.13 732 732 __________P___ -1 -17.27 155.13 7 21 123
1923 SP EA 11:00:00 NR -17.70 155.70 740 740 __________O___ -1 -17.70 155.70 7 21 131
1923 SP EA 12:00:00 NR -17.95 155.96 747 732 __________P___ -1 -17.95 155.96 7 22 140
1923 SP EA 15:00:00 NR -18.80 156.67 740 697 __________P___ -1 -18.80 156.67 7 22 146
1923 SP EA 18:00:00 NR -19.78 157.29 693 642 __________P___ -1 -19.78 157.29 7 23 152
1923 SP EA 21:00:00 NR -20.81 157.81 642 619 __________P___ -1 -20.81 157.81 7 23 156
1923 SP EA 23:00:00 NR -21.50 158.10 613 602 __________O___ -1 -21.50 158.10 7 22 159
1923 SP EA 1923-02-28 00:00:00 NR -21.83 158.22 602 573 __________P___ -1 -21.83 158.22 7 21 164
1923 SP EA 03:00:00 NR -22.82 158.52 573 555 __________P___ -1 -22.82 158.52 7 20 166
1923 SP EA 06:00:00 NR -23.80 158.75 552 552 __________P___ -1 -23.80 158.75 7 20 167
1923 SP EA 09:00:00 NR -24.73 158.99 565 564 __________P___ -1 -24.73 158.99 7 19 165
1923 SP EA 11:00:00 NR -25.30 159.20 584 584 __________O___ -1 -25.30 159.20 7 18 160
1923 SP EA 12:00:00 NR -25.57 159.33 596 596 __________P___ -1 -25.57 159.33 7 17 152
1923 SP EA 15:00:00 NR -26.31 159.79 647 644 __________P___ -1 -26.31 159.79 7 17 147
1923 SP MM 18:00:00 NR -26.98 160.34 672 672 __________P___ -1 -26.98 160.34 7 17 141
1923 SP MM 21:00:00 NR -27.60 160.97 729 728 __________P___ -1 -27.60 160.97 7 17 137
1923 SP MM 23:00:00 NR -28.00 161.40 764 __________O___ -1 -28.00 161.40 7 17 136